createdAt,value
2022-09-28T00:01:52.434Z,94038.66
2022-09-28T00:04:19.413Z,94034.78
2022-09-28T00:06:46.410Z,94042.69
2022-09-28T00:09:14.096Z,94025.25
2022-09-28T00:11:41.002Z,94021.41
2022-09-28T00:14:07.602Z,94025.69
2022-09-28T00:16:38.080Z,94017.22
2022-09-28T00:19:05.026Z,94014.13
2022-09-28T00:21:34.074Z,94010.72
2022-09-28T00:24:03.634Z,94006.06
2022-09-28T00:26:32.381Z,93999.53
2022-09-28T00:29:01.501Z,93995.66
2022-09-28T00:31:33.091Z,93992.59
2022-09-28T00:34:01.507Z,93982.84
2022-09-28T00:36:30.512Z,93981.03
2022-09-28T00:38:57.603Z,93978.72
2022-09-28T00:41:25.859Z,93967.53
2022-09-28T00:43:53.556Z,93966.81
2022-09-28T00:46:36.428Z,93956.31
2022-09-28T00:49:07.990Z,93954.06
2022-09-28T00:51:36.857Z,93956.78
2022-09-28T00:54:07.253Z,93951.34
2022-09-28T00:56:39.085Z,93954.84
2022-09-28T00:59:08.681Z,93945.56
2022-09-28T01:01:35.308Z,93942.50
2022-09-28T01:04:03.143Z,93943.25
2022-09-28T01:06:32.395Z,93944.81
2022-09-28T01:09:03.110Z,93939.78
2022-09-28T01:11:35.935Z,93937.06
2022-09-28T01:14:09.022Z,93937.84
2022-09-28T01:16:35.515Z,93943.25
2022-09-28T01:19:39.778Z,93932.75
2022-09-28T01:22:45.943Z,93924.53
2022-09-28T01:25:39.983Z,93922.25
2022-09-28T01:28:17.359Z,93906.75
2022-09-28T01:30:51.079Z,93910.28
2022-09-28T01:33:24.336Z,93885.84
2022-09-28T01:36:01.481Z,93880.06
2022-09-28T01:38:37.816Z,93895.88
2022-09-28T01:41:06.358Z,93888.91
2022-09-28T01:43:38.202Z,93888.09
2022-09-28T01:46:13.811Z,93882.25
2022-09-28T01:48:56.712Z,93871.75
2022-09-28T01:51:36.641Z,93866.31
2022-09-28T01:54:14.424Z,93858.94
2022-09-28T01:56:54.278Z,93852.31
2022-09-28T01:59:28.390Z,93838.75
2022-09-28T02:02:09.713Z,93839.88
2022-09-28T02:04:42.892Z,93839.88
2022-09-28T02:07:21.641Z,93831.75
2022-09-28T02:09:56.982Z,93825.53
2022-09-28T02:12:36.327Z,93826.72
2022-09-28T02:15:39.275Z,93824.81
2022-09-28T02:18:06.265Z,93809.75
2022-09-28T02:20:36.259Z,93812.91
2022-09-28T02:23:04.707Z,93800.88
2022-09-28T02:25:43.060Z,93787.75
2022-09-28T02:28:11.863Z,93782.75
2022-09-28T02:30:40.212Z,93776.50
2022-09-28T02:33:13.506Z,93771.88
2022-09-28T02:35:42.266Z,93767.22
2022-09-28T02:38:11.625Z,93756.38
2022-09-28T02:40:39.019Z,93764.16
2022-09-28T02:43:18.830Z,93755.59
2022-09-28T02:46:13.790Z,93741.22
2022-09-28T02:49:20.385Z,93737.72
2022-09-28T02:52:12.688Z,93740.81
2022-09-28T02:55:06.762Z,93730.75
2022-09-28T02:57:42.508Z,93733.03
2022-09-28T03:00:15.433Z,93731.03
2022-09-28T03:02:59.077Z,93729.13
2022-09-28T03:05:36.882Z,93720.88
2022-09-28T03:08:11.718Z,93718.88
2022-09-28T03:10:50.631Z,93714.16
2022-09-28T03:13:18.076Z,93709.50
2022-09-28T03:15:48.531Z,93709.41
2022-09-28T03:18:16.577Z,93702.34
2022-09-28T03:20:43.276Z,93699.13
2022-09-28T03:23:24.274Z,93704.50
2022-09-28T03:25:51.357Z,93700.16
2022-09-28T03:28:17.967Z,93700.78
2022-09-28T03:30:44.529Z,93696.06
2022-09-28T03:33:11.298Z,93693.63
2022-09-28T03:35:38.629Z,93696.28
2022-09-28T03:38:05.232Z,93692.81
2022-09-28T03:40:34.232Z,93688.09
2022-09-28T03:43:01.395Z,93683.44
2022-09-28T03:45:28.193Z,93690.81
2022-09-28T03:47:55.233Z,93679.94
2022-09-28T03:50:21.787Z,93686.16
2022-09-28T03:52:48.442Z,93680.72
2022-09-28T03:55:15.115Z,93683.09
2022-09-28T03:57:41.762Z,93669.53
2022-09-28T04:00:09.481Z,93671.09
2022-09-28T04:02:41.634Z,93662.97
2022-09-28T04:05:08.600Z,93664.53
2022-09-28T04:07:35.186Z,93663.38
2022-09-28T04:10:01.763Z,93665.31
2022-09-28T04:12:28.311Z,93655.25
2022-09-28T04:14:54.922Z,93640.56
2022-09-28T04:17:21.828Z,93641.34
2022-09-28T04:19:48.354Z,93635.91
2022-09-28T04:22:24.163Z,93642.91
2022-09-28T04:24:50.778Z,93640.56
2022-09-28T04:27:17.734Z,93638.25
2022-09-28T04:29:44.346Z,93636.31
2022-09-28T04:32:12.758Z,93639.84
2022-09-28T04:34:43.916Z,93644.09
2022-09-28T04:37:11.330Z,93643.75
2022-09-28T04:39:38.804Z,93656.94
2022-09-28T04:42:06.171Z,93657.72
2022-09-28T04:44:32.797Z,93654.66
2022-09-28T04:47:05.486Z,93660.94
2022-09-28T04:49:32.064Z,93662.53
2022-09-28T04:52:06.658Z,93664.16
2022-09-28T04:54:34.610Z,93657.16
2022-09-28T04:57:01.586Z,93658.81
2022-09-28T04:59:28.080Z,93644.88
2022-09-28T05:01:54.888Z,93646.88
2022-09-28T05:04:40.035Z,93655.72
2022-09-28T05:07:25.913Z,93652.66
2022-09-28T05:09:53.111Z,93645.66
2022-09-28T05:12:19.567Z,93646.06
2022-09-28T05:14:47.413Z,93646.50
2022-09-28T05:17:14.490Z,93648.88
2022-09-28T05:19:57.990Z,93648.50
2022-09-28T05:22:25.526Z,93653.94
2022-09-28T05:24:54.518Z,93657.44
2022-09-28T05:27:21.499Z,93662.06
2022-09-28T05:29:58.528Z,93667.50
2022-09-28T05:32:56.780Z,93667.91
2022-09-28T05:35:28.938Z,93669.16
2022-09-28T05:37:56.059Z,93668.78
2022-09-28T05:40:23.147Z,93655.22
2022-09-28T05:42:50.250Z,93649.03
2022-09-28T05:45:16.916Z,93648.69
2022-09-28T05:47:44.991Z,93645.06
2022-09-28T05:50:13.670Z,93642.91
2022-09-28T05:52:40.261Z,93638.28
2022-09-28T05:55:08.533Z,93645.25
2022-09-28T05:57:35.346Z,93626.34
2022-09-28T06:00:05.051Z,93638.75
2022-09-28T06:02:39.208Z,93629.88
2022-09-28T06:05:07.825Z,93629.50
2022-09-28T06:07:34.452Z,93632.28
2022-09-28T06:10:00.984Z,93623.78
2022-09-28T06:12:38.072Z,93632.38
2022-09-28T06:15:11.263Z,93642.50
2022-09-28T06:17:37.966Z,93641.34
2022-09-28T06:20:23.524Z,93649.13
2022-09-28T06:23:11.995Z,93644.50
2022-09-28T06:25:38.869Z,93630.78
2022-09-28T06:28:09.092Z,93633.63
2022-09-28T06:30:36.296Z,93620.09
2022-09-28T06:33:05.847Z,93620.09
2022-09-28T06:35:32.899Z,93611.59
2022-09-28T06:38:00.317Z,93598.03
2022-09-28T06:40:28.393Z,93596.09
2022-09-28T06:43:09.503Z,93600.75
2022-09-28T06:45:54.479Z,93582.50
2022-09-28T06:48:41.517Z,93566.56
2022-09-28T06:51:11.667Z,93571.22
2022-09-28T06:53:53.521Z,93578.97
2022-09-28T06:56:32.848Z,93577.38
2022-09-28T06:59:00.274Z,93584.75
2022-09-28T07:01:27.968Z,93583.59
2022-09-28T07:04:02.377Z,93580.53
2022-09-28T07:07:01.366Z,93593.72
2022-09-28T07:09:48.133Z,93589.09
2022-09-28T07:12:22.384Z,93596.84
2022-09-28T07:14:54.752Z,93587.16
2022-09-28T07:17:22.647Z,93593.38
2022-09-28T07:19:49.599Z,93593.78
2022-09-28T07:22:18.843Z,93586.88
2022-09-28T07:24:46.894Z,93593.53
2022-09-28T07:27:32.035Z,93598.22
2022-09-28T07:30:17.784Z,93599.41
2022-09-28T07:33:05.415Z,93601.81
2022-09-28T07:35:58.170Z,93598.00
2022-09-28T07:38:28.588Z,93603.91
2022-09-28T07:40:56.889Z,93610.97
2022-09-28T07:43:23.787Z,93610.25
2022-09-28T07:45:53.855Z,93624.66
2022-09-28T07:48:21.316Z,93616.97
2022-09-28T07:51:04.038Z,93627.16
2022-09-28T07:53:41.020Z,93616.41
2022-09-28T07:56:26.436Z,93614.94
2022-09-28T07:58:56.781Z,93619.31
2022-09-28T08:01:23.386Z,93615.91
2022-09-28T08:03:51.298Z,93618.31
2022-09-28T08:06:18.385Z,93614.88
2022-09-28T08:08:45.276Z,93634.00
2022-09-28T08:11:16.174Z,93631.72
2022-09-28T08:14:14.939Z,93624.78
2022-09-28T08:17:07.428Z,93621.72
2022-09-28T08:19:44.416Z,93630.72
2022-09-28T08:22:10.973Z,93634.25
2022-09-28T08:24:37.565Z,93637.81
2022-09-28T08:27:04.044Z,93637.84
2022-09-28T08:29:35.907Z,93640.63
2022-09-28T08:32:25.233Z,93643.75
2022-09-28T08:35:14.978Z,93636.81
2022-09-28T08:37:55.323Z,93640.38
2022-09-28T08:41:02.870Z,93650.53
2022-09-28T08:43:43.671Z,93642.38
2022-09-28T08:46:37.475Z,93640.47
2022-09-28T08:49:29.539Z,93640.50
2022-09-28T08:52:15.478Z,93642.47
2022-09-28T08:55:10.286Z,93643.25
2022-09-28T08:57:44.511Z,93651.09
2022-09-28T09:00:22.715Z,93649.56
2022-09-28T09:02:49.679Z,93646.88
2022-09-28T09:05:22.120Z,93644.22
2022-09-28T09:08:35.584Z,93652.81
2022-09-28T09:11:35.462Z,93641.16
2022-09-28T09:14:20.611Z,93652.88
2022-09-28T09:17:04.783Z,93652.91
2022-09-28T09:19:53.148Z,93654.13
2022-09-28T09:22:48.120Z,93663.91
2022-09-28T09:25:19.121Z,93666.69
2022-09-28T09:28:11.336Z,93657.75
2022-09-28T09:30:52.117Z,93653.97
2022-09-28T09:33:49.386Z,93650.06
2022-09-28T09:36:56.956Z,93646.66
2022-09-28T09:40:28.095Z,93647.81
2022-09-28T09:43:18.634Z,93716.81
2022-09-28T09:46:33.117Z,93686.03
2022-09-28T09:49:45.857Z,93743.06
2022-09-28T09:52:24.021Z,93735.09
2022-09-28T09:55:01.404Z,93738.38
2022-09-28T09:57:59.463Z,93736.50
2022-09-28T10:00:33.866Z,93742.84
2022-09-28T10:03:24.180Z,93746.44
2022-09-28T10:06:00.455Z,93742.75
2022-09-28T10:08:28.941Z,93742.53
2022-09-28T10:11:17.083Z,93742.72
2022-09-28T10:13:48.733Z,93748.03
2022-09-28T10:16:35.804Z,93754.56
2022-09-28T10:19:10.405Z,93753.31
2022-09-28T10:21:57.964Z,93761.41
2022-09-28T10:24:34.370Z,93768.38
2022-09-28T10:27:07.976Z,93768.66
2022-09-28T10:29:43.128Z,93770.53
2022-09-28T10:32:27.023Z,93772.75
2022-09-28T10:35:31.891Z,93767.63
2022-09-28T10:38:06.517Z,93777.88
2022-09-28T10:41:02.110Z,93776.81
2022-09-28T10:44:02.973Z,93777.88
2022-09-28T10:46:29.600Z,93780.19
2022-09-28T10:49:08.195Z,93786.31
2022-09-28T10:51:44.858Z,93777.72
2022-09-28T10:54:21.449Z,93777.72
2022-09-28T10:56:51.933Z,93786.69
2022-09-28T10:59:29.961Z,93792.13
2022-09-28T11:02:34.774Z,93799.91
2022-09-28T11:05:31.712Z,93798.75
2022-09-28T11:08:01.935Z,93794.19
2022-09-28T11:10:36.315Z,93783.66
2022-09-28T11:13:14.079Z,93784.91
2022-09-28T11:15:44.706Z,93777.94
2022-09-28T11:18:30.656Z,93778.75
2022-09-28T11:21:11.973Z,93789.59
2022-09-28T11:23:41.040Z,93781.16
2022-09-28T11:26:18.808Z,93781.97
2022-09-28T11:28:51.522Z,93788.28
2022-09-28T11:31:27.933Z,93798.41
2022-09-28T11:34:54.930Z,93792.28
2022-09-28T11:37:32.519Z,93803.25
2022-09-28T11:40:14.312Z,93792.81
2022-09-28T11:43:03.745Z,93790.16
2022-09-28T11:45:57.582Z,93797.59
2022-09-28T11:48:33.071Z,93805.78
2022-09-28T11:51:09.515Z,93813.63
2022-09-28T11:53:49.178Z,93803.22
2022-09-28T11:56:27.792Z,93796.25
2022-09-28T11:59:00.477Z,93782.34
2022-09-28T12:01:47.997Z,93785.19
2022-09-28T12:04:26.379Z,93798.16
2022-09-28T12:07:03.925Z,93794.81
2022-09-28T12:09:40.530Z,93799.63
2022-09-28T12:12:31.172Z,93800.16
2022-09-28T12:15:03.997Z,93799.91
2022-09-28T12:17:45.425Z,93805.03
2022-09-28T12:20:24.212Z,93798.06
2022-09-28T12:22:59.750Z,93795.41
2022-09-28T12:25:31.475Z,93794.22
2022-09-28T12:28:02.451Z,93798.16
2022-09-28T12:30:34.640Z,93791.94
2022-09-28T12:33:04.397Z,93788.06
2022-09-28T12:35:55.806Z,93804.13
2022-09-28T12:38:29.986Z,93808.44
2022-09-28T12:41:07.845Z,93813.56
2022-09-28T12:44:03.053Z,93808.16
2022-09-28T12:46:45.561Z,93807.06
2022-09-28T12:52:37.204Z,93818.81
2022-09-28T12:55:19.295Z,93817.66
2022-09-28T12:58:13.603Z,93812.22
2022-09-28T13:01:16.447Z,93800.13
2022-09-28T13:04:18.212Z,93808.31
2022-09-28T13:07:03.050Z,93807.13
2022-09-28T13:09:51.860Z,93809.50
2022-09-28T13:12:25.920Z,93800.59
2022-09-28T13:14:58.511Z,93792.50
2022-09-28T13:17:42.572Z,93796.41
2022-09-28T13:20:12.134Z,93806.19
2022-09-28T13:23:07.609Z,93798.84
2022-09-28T13:25:36.163Z,93785.25
2022-09-28T13:28:05.359Z,93791.94
2022-09-28T13:30:35.471Z,93787.72
2022-09-28T13:33:05.290Z,93785.06
2022-09-28T13:35:32.572Z,93788.69
2022-09-28T13:38:17.332Z,93790.72
2022-09-28T13:41:06.155Z,93785.63
2022-09-28T13:43:41.659Z,93793.38
2022-09-28T13:46:42.344Z,93797.97
2022-09-28T13:49:28.926Z,93791.72
2022-09-28T13:52:06.638Z,93796.63
2022-09-28T13:55:22.603Z,93797.56
2022-09-28T13:57:55.088Z,93810.56
2022-09-28T14:00:29.237Z,93808.13
2022-09-28T14:03:23.821Z,93810.28
2022-09-28T14:06:07.760Z,93810.06
2022-09-28T14:08:36.840Z,93821.19
2022-09-28T14:11:27.819Z,93818.31
2022-09-28T14:14:09.647Z,93816.31
2022-09-28T14:16:36.701Z,93816.63
2022-09-28T14:19:16.908Z,93807.28
2022-09-28T14:21:46.007Z,93803.34
2022-09-28T14:25:06.664Z,93797.88
2022-09-28T14:27:51.295Z,93792.44
2022-09-28T14:30:24.395Z,93797.06
2022-09-28T14:32:55.596Z,93799.38
2022-09-28T14:35:40.301Z,93808.66
2022-09-28T14:38:17.214Z,93814.09
2022-09-28T14:41:01.771Z,93806.66
2022-09-28T14:43:33.911Z,93798.88
2022-09-28T14:46:09.194Z,93808.19
2022-09-28T14:48:50.603Z,93803.13
2022-09-28T14:51:26.143Z,93813.22
2022-09-28T14:53:54.611Z,93802.72
2022-09-28T14:56:21.720Z,93805.00
2022-09-28T14:58:56.097Z,93819.75
2022-09-28T15:01:24.820Z,93814.31
2022-09-28T15:03:56.451Z,93823.19
2022-09-28T15:06:24.299Z,93821.25
2022-09-28T15:08:50.926Z,93819.69
2022-09-28T15:11:23.626Z,93820.84
2022-09-28T15:13:51.795Z,93828.56
2022-09-28T15:16:21.921Z,93822.16
2022-09-28T15:19:31.199Z,93828.09
2022-09-28T15:21:57.736Z,93835.09
2022-09-28T15:24:34.681Z,93836.25
2022-09-28T15:27:04.349Z,93829.22
2022-09-28T15:29:30.976Z,93836.25
2022-09-28T15:31:58.460Z,93834.66
2022-09-28T15:34:34.605Z,93839.31
2022-09-28T15:37:01.239Z,93828.88
2022-09-28T15:39:32.165Z,93839.38
2022-09-28T15:42:00.281Z,93834.75
2022-09-28T15:44:35.677Z,93828.50
2022-09-28T15:47:15.279Z,93818.78
2022-09-28T15:49:45.644Z,93833.94
2022-09-28T15:52:40.562Z,93829.31
2022-09-28T15:55:34.907Z,93833.94
2022-09-28T15:58:19.430Z,93829.72
2022-09-28T16:00:48.417Z,93834.78
2022-09-28T16:03:28.960Z,93841.38
2022-09-28T16:05:58.590Z,93852.66
2022-09-28T16:08:30.896Z,93851.09
2022-09-28T16:11:12.316Z,93859.97
2022-09-28T16:14:07.165Z,93855.25
2022-09-28T16:16:37.345Z,93861.94
2022-09-28T16:19:05.197Z,93869.63
2022-09-28T16:21:45.500Z,93871.94
2022-09-28T16:24:27.451Z,93861.78
2022-09-28T16:27:00.958Z,93869.94
2022-09-28T16:29:35.110Z,93871.44
2022-09-28T16:32:26.225Z,93865.59
2022-09-28T16:35:17.568Z,93866.31
2022-09-28T16:37:45.446Z,93864.00
2022-09-28T16:40:12.727Z,93869.78
2022-09-28T16:42:40.626Z,93868.59
2022-09-28T16:45:17.493Z,93870.91
2022-09-28T16:47:43.973Z,93866.59
2022-09-28T16:50:14.707Z,93863.84
2022-09-28T16:52:41.636Z,93873.13
2022-09-28T16:55:35.746Z,93871.13
2022-09-28T16:57:57.454Z,93865.63
2022-09-28T17:00:25.745Z,93869.47
2022-09-28T17:02:53.062Z,93876.03
2022-09-28T17:05:20.656Z,93872.91
2022-09-28T17:08:01.859Z,93873.63
2022-09-28T17:10:56.137Z,93864.28
2022-09-28T17:13:29.053Z,93865.78
2022-09-28T17:15:55.578Z,93877.78
2022-09-28T17:18:22.150Z,93867.28
2022-09-28T17:20:50.818Z,93866.50
2022-09-28T17:26:05.519Z,93861.00
2022-09-28T17:28:35.239Z,93865.66
2022-09-28T17:31:03.419Z,93865.66
2022-09-28T17:33:29.947Z,93867.00
2022-09-28T17:36:00.349Z,93871.00
2022-09-28T17:38:27.296Z,93876.06
2022-09-28T17:40:53.792Z,93867.91
2022-09-28T17:43:20.291Z,93867.16
2022-09-28T17:45:47.429Z,93867.16
2022-09-28T17:48:16.225Z,93864.78
2022-09-28T17:50:46.417Z,93872.94
2022-09-28T17:53:14.007Z,93870.22
2022-09-28T17:55:41.069Z,93869.44
2022-09-28T17:58:19.846Z,93867.09
2022-09-28T18:00:47.770Z,93872.16
2022-09-28T18:03:24.993Z,93866.28
2022-09-28T18:06:06.724Z,93874.78
2022-09-28T18:08:34.245Z,93878.72
2022-09-28T18:11:00.800Z,93876.78
2022-09-28T18:13:27.853Z,93871.72
2022-09-28T18:15:55.643Z,93876.38
2022-09-28T18:18:23.392Z,93874.00
2022-09-28T18:20:50.295Z,93877.84
2022-09-28T18:23:17.690Z,93886.34
2022-09-28T18:25:47.686Z,93887.53
2022-09-28T18:28:15.000Z,93901.88
2022-09-28T18:30:43.779Z,93903.34
2022-09-28T18:33:12.109Z,93908.00
2022-09-28T18:35:39.400Z,93907.22
2022-09-28T18:38:06.974Z,93911.84
2022-09-28T18:40:34.755Z,93916.50
2022-09-28T18:43:02.120Z,93912.22
2022-09-28T18:45:28.902Z,93920.38
2022-09-28T18:47:55.380Z,93918.78
2022-09-28T18:50:21.952Z,93935.84
2022-09-28T18:52:48.482Z,93930.78
2022-09-28T18:55:15.298Z,93936.19
2022-09-28T18:57:41.898Z,93938.16
2022-09-28T19:00:11.358Z,93946.66
2022-09-28T19:02:38.181Z,93945.06
2022-09-28T19:05:05.747Z,93944.28
2022-09-28T19:07:33.646Z,93952.78
2022-09-28T19:10:00.268Z,93952.00
2022-09-28T19:12:26.872Z,93951.56
2022-09-28T19:14:53.406Z,93951.91
2022-09-28T19:17:20.565Z,93954.19
2022-09-28T19:19:47.121Z,93949.47
2022-09-28T19:22:13.647Z,93957.19
2022-09-28T19:24:40.193Z,93954.06
2022-09-28T19:27:06.771Z,93959.47
2022-09-28T19:29:33.264Z,93969.53
2022-09-28T19:31:59.806Z,93966.41
2022-09-28T19:34:26.315Z,93969.88
2022-09-28T19:36:52.884Z,93977.25
2022-09-28T19:39:19.369Z,93979.97
2022-09-28T19:41:45.963Z,93985.41
2022-09-28T19:44:18.328Z,93989.25
2022-09-28T19:46:45.024Z,93988.47
2022-09-28T19:49:16.848Z,93994.66
2022-09-28T19:52:01.696Z,94001.69
2022-09-28T19:54:34.284Z,93999.75
2022-09-28T19:57:02.758Z,94002.47
2022-09-28T19:59:29.203Z,94002.47
2022-09-28T20:01:55.802Z,94008.69
2022-09-28T20:04:22.487Z,94015.59
2022-09-28T20:06:49.032Z,94014.03
2022-09-28T20:09:15.682Z,94020.59
2022-09-28T20:11:42.159Z,94021.31
2022-09-28T20:14:09.780Z,94024.38
2022-09-28T20:16:36.820Z,94027.78
2022-09-28T20:19:03.966Z,94030.84
2022-09-28T20:21:30.733Z,94028.50
2022-09-28T20:23:57.288Z,94026.13
2022-09-28T20:26:25.912Z,94031.13
2022-09-28T20:28:52.733Z,94033.38
2022-09-28T20:31:24.635Z,94041.09
2022-09-28T20:33:51.940Z,94040.31
2022-09-28T20:36:23.402Z,94036.34
2022-09-28T20:38:51.855Z,94038.66
2022-09-28T20:41:20.316Z,94040.94
2022-09-28T20:43:46.896Z,94039.34
2022-09-28T20:46:14.396Z,94037.31
2022-09-28T20:48:41.082Z,94044.22
2022-09-28T20:51:11.923Z,94048.88
2022-09-28T20:53:40.044Z,94046.84
2022-09-28T20:56:08.095Z,94052.47
2022-09-28T20:58:34.495Z,94056.66
2022-09-28T21:01:06.579Z,94047.13
2022-09-28T21:03:34.558Z,94046.34
2022-09-28T21:06:01.429Z,94047.81
2022-09-28T21:08:29.209Z,94048.94
2022-09-28T21:10:56.265Z,94055.88
2022-09-28T21:13:25.634Z,94058.94
2022-09-28T21:15:52.494Z,94068.97
2022-09-28T21:18:20.271Z,94068.19
2022-09-28T21:20:51.144Z,94063.91
2022-09-28T21:23:24.730Z,94065.03
2022-09-28T21:26:01.548Z,94065.03
2022-09-28T21:28:28.076Z,94062.78
2022-09-28T21:30:54.755Z,94068.19
2022-09-28T21:33:21.236Z,94067.06
2022-09-28T21:35:47.755Z,94071.34
2022-09-28T21:38:14.285Z,94077.56
2022-09-28T21:40:40.892Z,94077.22
2022-09-28T21:43:07.439Z,94069.88
2022-09-28T21:45:34.130Z,94074.94
2022-09-28T21:48:00.836Z,94073.81
2022-09-28T21:50:27.317Z,94075.38
2022-09-28T21:52:55.344Z,94071.88
2022-09-28T21:55:23.615Z,94070.75
2022-09-28T21:57:51.421Z,94071.19
2022-09-28T22:00:20.816Z,94073.56
2022-09-28T22:02:47.321Z,94073.22
2022-09-28T22:05:13.879Z,94062.44
2022-09-28T22:07:41.170Z,94070.22
2022-09-28T22:10:10.923Z,94064.47
2022-09-28T22:12:37.873Z,94066.81
2022-09-28T22:15:06.949Z,94071.13
2022-09-28T22:17:33.519Z,94075.03
2022-09-28T22:20:00.265Z,94065.78
2022-09-28T22:22:29.154Z,94061.91
2022-09-28T22:24:55.859Z,94065.09
2022-09-28T22:27:22.411Z,94063.16
2022-09-28T22:29:48.942Z,94052.63
2022-09-28T22:32:15.439Z,94054.94
2022-09-28T22:34:41.933Z,94060.34
2022-09-28T22:37:11.190Z,94060.69
2022-09-28T22:39:38.034Z,94050.97
2022-09-28T22:42:04.889Z,94050.97
2022-09-28T22:44:31.444Z,94051.66
2022-09-28T22:46:57.941Z,94049.31
2022-09-28T22:49:24.504Z,94052.38
2022-09-28T22:51:51.042Z,94044.94
2022-09-28T22:54:17.667Z,94044.84
2022-09-28T22:56:44.395Z,94050.97
2022-09-28T22:59:11.870Z,94061.72
2022-09-28T23:01:38.725Z,94055.06
2022-09-28T23:04:06.219Z,94057.34
2022-09-28T23:06:32.786Z,94059.97
2022-09-28T23:08:59.407Z,94064.16
2022-09-28T23:11:26.251Z,94057.16
2022-09-28T23:13:55.057Z,94057.88
2022-09-28T23:16:22.041Z,94066.34
2022-09-28T23:18:48.782Z,94062.81
2022-09-28T23:21:17.527Z,94069.75
2022-09-28T23:23:45.485Z,94060.38
2022-09-28T23:26:20.622Z,94060.72
2022-09-28T23:28:47.435Z,94061.97
2022-09-28T23:31:17.158Z,94054.16
2022-09-28T23:33:43.784Z,94052.25
2022-09-28T23:36:10.940Z,94049.97
2022-09-28T23:38:37.698Z,94044.53
2022-09-28T23:41:04.875Z,94046.47
2022-09-28T23:43:31.434Z,94044.53
2022-09-28T23:45:57.980Z,94051.19
2022-09-28T23:48:24.563Z,94053.13
2022-09-28T23:50:51.007Z,94048.84
2022-09-28T23:53:17.527Z,94040.28
2022-09-28T23:55:44.046Z,94044.09
2022-09-28T23:58:11.865Z,94047.94
